createdAt,value
2018-06-05T00:02:21.530Z,32.97
2018-06-05T00:04:53.665Z,29.77
2018-06-05T00:07:25.563Z,32.80
2018-06-05T00:09:58.117Z,30.23
2018-06-05T00:12:29.972Z,30.30
2018-06-05T00:15:02.142Z,30.00
2018-06-05T00:17:34.102Z,31.10
2018-06-05T00:20:06.989Z,32.17
2018-06-05T00:22:38.910Z,29.13
2018-06-05T00:25:11.106Z,32.13
2018-06-05T00:27:42.927Z,30.80
2018-06-05T00:30:15.209Z,33.20
2018-06-05T00:32:46.782Z,30.97
2018-06-05T00:35:18.765Z,31.37
2018-06-05T00:37:50.355Z,31.83
2018-06-05T00:40:22.561Z,30.10
2018-06-05T00:42:54.395Z,30.17
2018-06-05T00:45:26.515Z,32.97
2018-06-05T00:47:58.625Z,33.13
2018-06-05T00:50:30.713Z,32.80
2018-06-05T00:53:02.700Z,32.20
2018-06-05T00:55:34.886Z,30.67
2018-06-05T00:58:06.764Z,32.90
2018-06-05T01:00:39.010Z,34.47
2018-06-05T01:03:10.871Z,34.30
2018-06-05T01:05:43.015Z,32.60
2018-06-05T01:08:14.940Z,34.30
2018-06-05T01:10:46.990Z,33.83
2018-06-05T01:13:19.057Z,33.50
2018-06-05T01:15:51.190Z,34.40
2018-06-05T01:18:23.189Z,34.33
2018-06-05T01:20:56.669Z,34.07
2018-06-05T01:23:28.430Z,35.00
2018-06-05T01:26:00.474Z,34.63
2018-06-05T01:28:32.313Z,32.50
2018-06-05T01:31:04.321Z,35.50
2018-06-05T01:33:36.151Z,32.93
2018-06-05T01:36:08.197Z,31.63
2018-06-05T01:38:40.102Z,35.10
2018-06-05T01:41:11.780Z,32.67
2018-06-05T01:43:43.662Z,36.10
2018-06-05T01:46:14.885Z,34.97
2018-06-05T01:48:46.960Z,32.40
2018-06-05T01:51:18.809Z,34.13
2018-06-05T01:53:51.124Z,34.57
2018-06-05T01:56:24.078Z,34.37
2018-06-05T01:58:56.035Z,35.83
2018-06-05T02:01:28.185Z,35.63
2018-06-05T02:04:00.181Z,33.80
2018-06-05T02:06:32.361Z,35.37
2018-06-05T02:09:04.834Z,34.90
2018-06-05T02:11:36.944Z,34.00
2018-06-05T02:14:08.768Z,33.27
2018-06-05T02:16:40.787Z,34.27
2018-06-05T02:19:12.741Z,35.93
2018-06-05T02:21:46.857Z,37.00
2018-06-05T02:24:18.710Z,33.03
2018-06-05T02:26:50.686Z,34.87
2018-06-05T02:29:22.524Z,33.70
2018-06-05T02:31:54.808Z,32.73
2018-06-05T02:34:26.643Z,35.83
2018-06-05T02:36:58.986Z,35.40
2018-06-05T02:39:29.800Z,32.23
2018-06-05T02:42:01.970Z,34.37
2018-06-05T02:44:33.805Z,30.93
2018-06-05T02:47:05.152Z,33.03
2018-06-05T02:49:37.168Z,33.53
2018-06-05T02:52:09.145Z,28.87
2018-06-05T02:54:40.802Z,30.50
2018-06-05T02:57:12.939Z,29.23
2018-06-05T02:59:44.770Z,29.70
2018-06-05T03:02:17.102Z,31.80
2018-06-05T03:04:49.177Z,28.10
2018-06-05T03:07:21.118Z,30.40
2018-06-05T03:09:51.893Z,27.43
2018-06-05T03:12:24.704Z,29.43
2018-06-05T03:14:56.713Z,29.20
2018-06-05T03:17:32.846Z,28.93
2018-06-05T03:20:04.817Z,25.40
2018-06-05T03:22:38.133Z,24.87
2018-06-05T03:25:10.044Z,24.40
2018-06-05T03:27:42.170Z,23.30
2018-06-05T03:30:14.039Z,22.60
2018-06-05T03:32:46.041Z,20.20
2018-06-05T03:35:17.942Z,18.37
2018-06-05T03:37:49.142Z,17.30
2018-06-05T03:40:20.999Z,18.70
2018-06-05T03:42:52.995Z,19.40
2018-06-05T03:45:25.124Z,19.90
2018-06-05T03:47:56.457Z,17.87
2018-06-05T03:50:28.518Z,18.03
2018-06-05T03:53:01.402Z,18.70
2018-06-05T03:55:33.382Z,17.97
2018-06-05T03:58:05.181Z,16.00
2018-06-05T04:00:36.823Z,14.73
2018-06-05T04:03:08.874Z,14.60
2018-06-05T04:05:40.742Z,15.70
2018-06-05T04:08:13.266Z,16.17
2018-06-05T04:10:45.689Z,14.87
2018-06-05T04:13:17.007Z,14.30
2018-06-05T04:15:48.184Z,14.13
2018-06-05T04:18:20.776Z,15.63
2018-06-05T04:20:52.685Z,17.47
2018-06-05T04:23:26.380Z,16.90
2018-06-05T04:25:58.306Z,15.37
2018-06-05T04:28:30.374Z,15.70
2018-06-05T04:31:02.342Z,16.73
2018-06-05T04:33:34.535Z,16.37
2018-06-05T04:36:06.188Z,16.97
2018-06-05T04:38:38.382Z,16.00
2018-06-05T04:41:10.097Z,17.80
2018-06-05T04:43:42.238Z,19.33
2018-06-05T04:46:14.520Z,19.03
2018-06-05T04:48:46.079Z,18.60
2018-06-05T04:51:17.990Z,19.70
2018-06-05T04:53:50.119Z,18.63
2018-06-05T04:56:22.168Z,17.77
2018-06-05T04:58:53.418Z,16.47
2018-06-05T05:01:25.689Z,16.40
2018-06-05T05:03:57.929Z,17.80
2018-06-05T05:06:29.734Z,14.60
2018-06-05T05:09:01.857Z,14.83
2018-06-05T05:11:33.762Z,14.03
2018-06-05T05:14:05.881Z,13.93
2018-06-05T05:16:37.935Z,13.53
2018-06-05T05:19:09.908Z,14.40
2018-06-05T05:21:41.749Z,14.30
2018-06-05T05:24:14.993Z,13.83
2018-06-05T05:26:46.933Z,16.60
2018-06-05T05:29:19.329Z,15.43
2018-06-05T05:31:51.151Z,16.37
2018-06-05T05:34:24.504Z,15.87
2018-06-05T05:36:56.578Z,18.23
2018-06-05T05:39:28.439Z,16.73
2018-06-05T05:42:00.323Z,17.57
2018-06-05T05:44:32.318Z,16.77
2018-06-05T05:47:04.875Z,15.50
2018-06-05T05:49:36.142Z,17.17
2018-06-05T05:52:07.070Z,16.17
2018-06-05T05:54:39.142Z,16.55
2018-06-05T05:57:11.906Z,16.27
2018-06-05T05:59:43.954Z,16.30
2018-06-05T06:02:15.665Z,16.25
2018-06-05T06:04:48.293Z,16.75
2018-06-05T06:07:20.289Z,16.97
2018-06-05T06:09:54.525Z,17.37
2018-06-05T06:12:26.162Z,18.95
2018-06-05T06:14:58.118Z,17.87
2018-06-05T06:17:29.290Z,15.77
2018-06-05T06:20:01.538Z,15.65
2018-06-05T06:22:33.485Z,18.15
2018-06-05T06:25:05.614Z,15.63
2018-06-05T06:27:37.494Z,16.50
2018-06-05T06:30:09.622Z,17.85
2018-06-05T06:32:41.670Z,15.65
2018-06-05T06:35:14.135Z,14.53
2018-06-05T06:37:46.098Z,14.93
2018-06-05T06:40:18.444Z,15.45
2018-06-05T06:42:50.385Z,15.68
2018-06-05T06:45:22.704Z,16.17
2018-06-05T06:47:54.650Z,16.20
2018-06-05T06:50:25.729Z,14.33
2018-06-05T06:52:57.594Z,16.25
2018-06-05T06:55:28.939Z,16.37
2018-06-05T06:58:01.870Z,14.35
2018-06-05T07:00:33.681Z,17.17
2018-06-05T07:03:05.601Z,16.17
2018-06-05T07:05:37.534Z,14.95
2018-06-05T07:08:09.400Z,16.07
2018-06-05T07:10:41.577Z,16.25
2018-06-05T07:13:13.343Z,15.25
2018-06-05T07:15:45.659Z,14.37
2018-06-05T07:18:18.593Z,15.53
2018-06-05T07:20:50.845Z,14.43
2018-06-05T07:23:21.888Z,15.00
2018-06-05T07:25:54.196Z,14.38
2018-06-05T07:28:26.221Z,14.63
2018-06-05T07:30:58.387Z,14.18
2018-06-05T07:33:30.229Z,13.20
2018-06-05T07:36:02.569Z,15.00
2018-06-05T07:38:34.535Z,14.45
2018-06-05T07:41:07.036Z,15.25
2018-06-05T07:43:37.881Z,14.40
2018-06-05T07:46:10.634Z,15.25
2018-06-05T07:48:42.587Z,15.03
2018-06-05T07:51:14.938Z,13.43
2018-06-05T07:53:46.993Z,14.45
2018-06-05T07:56:19.369Z,13.62
2018-06-05T07:58:52.258Z,16.07
2018-06-05T08:01:24.279Z,13.78
2018-06-05T08:03:56.056Z,14.55
2018-06-05T08:06:28.675Z,15.18
2018-06-05T08:09:00.799Z,14.60
2018-06-05T08:11:33.072Z,14.83
2018-06-05T08:14:05.037Z,14.15
2018-06-05T08:16:37.191Z,13.75
2018-06-05T08:19:09.077Z,15.20
2018-06-05T08:21:41.350Z,14.60
2018-06-05T08:24:13.502Z,15.40
2018-06-05T08:26:55.830Z,14.35
2018-06-05T08:29:27.620Z,15.10
2018-06-05T08:31:59.670Z,13.88
2018-06-05T08:34:31.100Z,13.00
2018-06-05T08:37:03.667Z,15.33
2018-06-05T08:39:35.386Z,13.60
2018-06-05T08:42:07.500Z,15.18
2018-06-05T08:44:39.656Z,14.47
2018-06-05T08:47:11.954Z,13.98
2018-06-05T08:49:43.978Z,15.00
2018-06-05T08:52:16.393Z,13.60
2018-06-05T08:54:48.200Z,13.60
2018-06-05T08:57:20.442Z,14.93
2018-06-05T08:59:53.205Z,13.50
2018-06-05T09:02:25.177Z,12.90
2018-06-05T09:04:56.985Z,12.45
2018-06-05T09:07:28.860Z,11.22
2018-06-05T09:10:00.789Z,11.80
2018-06-05T09:12:32.545Z,13.45
2018-06-05T09:15:04.185Z,13.33
2018-06-05T09:17:35.910Z,12.00
2018-06-05T09:20:06.625Z,13.15
2018-06-05T09:22:38.374Z,12.13
2018-06-05T09:25:10.067Z,13.60
2018-06-05T09:27:41.972Z,14.37
2018-06-05T09:30:13.428Z,13.63
2018-06-05T09:32:45.202Z,14.47
2018-06-05T09:35:15.861Z,14.73
2018-06-05T09:37:47.658Z,12.63
2018-06-05T09:40:19.494Z,14.73
2018-06-05T09:42:51.120Z,13.60
2018-06-05T09:45:22.762Z,14.00
2018-06-05T09:47:54.665Z,15.07
2018-06-05T09:50:26.334Z,13.10
2018-06-05T09:52:57.826Z,14.00
2018-06-05T09:55:29.284Z,13.77
2018-06-05T09:58:01.257Z,14.87
2018-06-05T10:00:39.047Z,15.17
2018-06-05T10:03:11.006Z,14.70
2018-06-05T10:05:42.561Z,15.10
2018-06-05T10:08:14.460Z,15.40
2018-06-05T10:10:46.076Z,14.63
2018-06-05T10:13:18.044Z,14.40
2018-06-05T10:15:49.899Z,15.97
2018-06-05T10:18:21.652Z,14.87
2018-06-05T10:20:53.314Z,15.70
2018-06-05T10:23:25.179Z,15.53
2018-06-05T10:25:56.883Z,16.60
2018-06-05T10:28:28.622Z,14.87
2018-06-05T10:31:00.140Z,15.47
2018-06-05T10:33:32.034Z,15.10
2018-06-05T10:36:04.134Z,14.77
2018-06-05T10:38:36.344Z,14.53
2018-06-05T10:41:07.984Z,14.50
2018-06-05T10:43:39.564Z,14.13
2018-06-05T10:46:11.124Z,15.80
2018-06-05T10:48:43.076Z,16.73
2018-06-05T10:51:15.078Z,17.63
2018-06-05T10:53:46.213Z,14.67
2018-06-05T10:56:18.608Z,14.83
2018-06-05T10:58:50.995Z,14.30
2018-06-05T11:01:24.024Z,15.47
2018-06-05T11:03:56.131Z,15.10
2018-06-05T11:06:27.844Z,14.50
2018-06-05T11:08:59.692Z,13.97
2018-06-05T11:11:31.096Z,13.80
2018-06-05T11:14:03.027Z,15.47
2018-06-05T11:16:34.602Z,15.40
2018-06-05T11:19:06.438Z,16.20
2018-06-05T11:21:37.950Z,13.10
2018-06-05T11:24:08.870Z,14.10
2018-06-05T11:26:44.955Z,15.77
2018-06-05T11:29:17.110Z,14.03
2018-06-05T11:31:48.718Z,15.17
2018-06-05T11:34:20.804Z,16.50
2018-06-05T11:36:52.652Z,14.03
2018-06-05T11:39:24.603Z,15.83
2018-06-05T11:41:56.094Z,15.03
2018-06-05T11:44:27.907Z,14.87
2018-06-05T11:46:59.867Z,13.77
2018-06-05T11:49:32.138Z,16.57
2018-06-05T11:52:03.580Z,16.90
2018-06-05T11:54:34.913Z,16.80
2018-06-05T11:57:05.606Z,16.90
2018-06-05T11:59:37.360Z,17.37
2018-06-05T12:02:09.904Z,15.90
2018-06-05T12:04:41.702Z,15.43
2018-06-05T12:07:13.448Z,17.60
2018-06-05T12:09:45.634Z,17.37
2018-06-05T12:12:17.420Z,16.63
2018-06-05T12:14:49.231Z,17.27
2018-06-05T12:17:20.623Z,16.00
2018-06-05T12:19:51.576Z,17.23
2018-06-05T12:22:23.139Z,14.70
2018-06-05T12:24:54.895Z,15.70
2018-06-05T12:27:25.845Z,15.17
2018-06-05T12:29:58.049Z,16.27
2018-06-05T12:32:29.816Z,16.33
2018-06-05T12:35:01.751Z,17.17
2018-06-05T12:37:32.478Z,15.70
2018-06-05T12:40:03.500Z,16.57
2018-06-05T12:42:35.196Z,15.17
2018-06-05T12:45:07.322Z,17.30
2018-06-05T12:47:39.125Z,16.23
2018-06-05T12:50:11.158Z,16.60
2018-06-05T12:52:42.557Z,14.40
2018-06-05T12:55:14.363Z,15.80
2018-06-05T12:57:45.937Z,17.00
2018-06-05T13:00:17.784Z,16.20
2018-06-05T13:02:50.949Z,15.60
2018-06-05T13:05:22.990Z,15.70
2018-06-05T13:07:54.558Z,17.07
2018-06-05T13:10:26.571Z,17.20
2018-06-05T13:12:58.007Z,18.00
2018-06-05T13:15:29.670Z,16.63
2018-06-05T13:18:01.331Z,18.60
2018-06-05T13:20:33.269Z,17.77
2018-06-05T13:23:04.735Z,16.70
2018-06-05T13:25:36.424Z,16.53
2018-06-05T13:28:08.349Z,17.37
2018-06-05T13:30:40.256Z,17.10
2018-06-05T13:33:11.946Z,16.40
2018-06-05T13:35:44.257Z,17.93
2018-06-05T13:38:16.038Z,15.70
2018-06-05T13:40:47.811Z,15.00
2018-06-05T13:43:19.543Z,18.10
2018-06-05T13:45:51.338Z,17.37
2018-06-05T13:48:22.887Z,18.20
2018-06-05T13:50:55.082Z,17.27
2018-06-05T13:53:26.802Z,18.63
2018-06-05T13:55:58.908Z,14.40
2018-06-05T13:58:30.817Z,17.10
2018-06-05T14:01:03.942Z,15.43
2018-06-05T14:03:36.746Z,15.30
2018-06-05T14:06:08.690Z,17.20
2018-06-05T14:08:40.558Z,17.57
2018-06-05T14:11:12.325Z,18.20
2018-06-05T14:13:44.224Z,16.90
2018-06-05T14:16:16.205Z,16.40
2018-06-05T14:18:47.669Z,18.00
2018-06-05T14:21:19.799Z,15.80
2018-06-05T14:23:51.488Z,15.57
2018-06-05T14:26:22.996Z,16.67
2018-06-05T14:28:54.725Z,15.80
2018-06-05T14:31:26.806Z,16.20
2018-06-05T14:33:58.746Z,17.13
2018-06-05T14:36:30.525Z,16.77
2018-06-05T14:39:02.037Z,16.47
2018-06-05T14:41:33.954Z,16.80
2018-06-05T14:44:05.611Z,16.77
2018-06-05T14:46:37.841Z,15.03
2018-06-05T14:49:09.253Z,16.20
2018-06-05T14:51:41.055Z,16.70
2018-06-05T14:54:11.695Z,17.33
2018-06-05T14:56:43.636Z,16.67
2018-06-05T14:59:14.751Z,16.27
2018-06-05T15:01:46.714Z,17.20
2018-06-05T15:04:19.311Z,16.27
2018-06-05T15:06:52.014Z,16.33
2018-06-05T15:09:23.670Z,14.70
2018-06-05T15:11:54.963Z,16.90
2018-06-05T15:14:26.652Z,15.03
2018-06-05T15:16:58.372Z,17.30
2018-06-05T15:19:30.165Z,16.60
2018-06-05T15:22:01.859Z,17.20
2018-06-05T15:24:32.882Z,17.13
2018-06-05T15:27:04.537Z,15.83
2018-06-05T15:29:35.091Z,17.70
2018-06-05T15:32:07.098Z,15.80
2018-06-05T15:34:38.654Z,17.03
2018-06-05T15:37:10.612Z,17.77
2018-06-05T15:39:42.407Z,17.67
2018-06-05T15:42:13.967Z,17.93
2018-06-05T15:44:45.508Z,16.07
2018-06-05T15:47:16.384Z,14.90
2018-06-05T15:49:47.908Z,15.37
2018-06-05T15:52:19.608Z,16.03
2018-06-05T15:54:51.624Z,16.40
2018-06-05T15:57:22.829Z,18.10
2018-06-05T15:59:54.574Z,15.53
2018-06-05T16:02:26.328Z,15.67
2018-06-05T16:04:59.320Z,16.50
2018-06-05T16:07:31.178Z,16.70
2018-06-05T16:10:02.599Z,16.90
2018-06-05T16:12:35.066Z,17.53
2018-06-05T16:15:06.726Z,14.90
2018-06-05T16:17:37.576Z,15.27
2018-06-05T16:20:09.461Z,18.27
2018-06-05T16:22:41.352Z,17.83
2018-06-05T16:25:12.907Z,15.67
2018-06-05T16:27:44.988Z,16.80
2018-06-05T16:30:16.797Z,18.27
2018-06-05T16:32:48.380Z,15.30
2018-06-05T16:35:19.863Z,17.37
2018-06-05T16:37:51.647Z,16.37
2018-06-05T16:42:43.422Z,18.67
2018-06-05T16:45:15.140Z,16.33
2018-06-05T16:47:46.695Z,15.67
2018-06-05T16:50:18.679Z,16.83
2018-06-05T16:52:49.134Z,18.33
2018-06-05T16:55:20.359Z,16.80
2018-06-05T16:57:51.447Z,17.90
2018-06-05T17:00:22.906Z,15.90
2018-06-05T17:02:54.261Z,17.57
2018-06-05T17:05:27.007Z,15.20
2018-06-05T17:07:58.450Z,15.93
2018-06-05T17:10:30.271Z,15.70
2018-06-05T17:13:01.909Z,16.80
2018-06-05T17:15:33.634Z,14.53
2018-06-05T17:18:05.235Z,17.47
2018-06-05T17:20:37.330Z,14.33
2018-06-05T17:23:08.897Z,16.60
2018-06-05T17:25:40.713Z,15.93
2018-06-05T17:28:12.790Z,15.67
2018-06-05T17:30:44.659Z,16.20
2018-06-05T17:33:16.184Z,16.40
2018-06-05T17:35:48.194Z,16.73
2018-06-05T17:38:19.948Z,15.50
2018-06-05T17:40:51.769Z,16.50
2018-06-05T17:43:23.224Z,17.27
2018-06-05T17:45:55.082Z,16.97
2018-06-05T17:48:26.780Z,17.40
2018-06-05T17:50:57.896Z,16.30
2018-06-05T17:53:29.576Z,17.20
2018-06-05T17:56:01.309Z,17.03
2018-06-05T17:58:32.858Z,18.50
2018-06-05T18:01:04.676Z,16.83
2018-06-05T18:03:36.088Z,18.07
2018-06-05T18:06:08.100Z,17.13
2018-06-05T18:08:39.593Z,15.77
2018-06-05T18:11:11.466Z,16.33
2018-06-05T18:13:42.919Z,17.40
2018-06-05T18:16:14.000Z,15.63
2018-06-05T18:18:45.514Z,18.40
2018-06-05T18:21:17.947Z,17.37
2018-06-05T18:23:49.679Z,17.53
2018-06-05T18:26:21.705Z,16.73
2018-06-05T18:28:53.300Z,15.80
2018-06-05T18:31:24.929Z,15.50
2018-06-05T18:33:56.471Z,16.03
2018-06-05T18:36:28.378Z,17.80
2018-06-05T18:39:00.102Z,17.57
2018-06-05T18:41:31.834Z,16.80
2018-06-05T18:44:03.460Z,15.67
2018-06-05T18:46:35.136Z,17.90
2018-06-05T18:49:06.757Z,17.27
2018-06-05T18:51:38.237Z,16.87
2018-06-05T18:54:09.807Z,17.40
2018-06-05T18:56:41.951Z,18.40
2018-06-05T18:59:13.446Z,18.43
2018-06-05T19:01:45.949Z,17.17
2018-06-05T19:04:17.480Z,16.60
2018-06-05T19:07:00.476Z,17.50
2018-06-05T19:09:32.878Z,16.43
2018-06-05T19:12:04.624Z,18.40
2018-06-05T19:14:36.293Z,18.27
2018-06-05T19:17:08.209Z,17.60
2018-06-05T19:19:40.040Z,16.40
2018-06-05T19:22:11.901Z,17.97
2018-06-05T19:24:43.410Z,17.60
2018-06-05T19:27:15.274Z,17.43
2018-06-05T19:29:47.023Z,17.10
2018-06-05T19:32:19.041Z,16.77
2018-06-05T19:34:50.392Z,16.93
2018-06-05T19:37:21.323Z,17.50
2018-06-05T19:39:52.905Z,17.17
2018-06-05T19:42:23.855Z,19.20
2018-06-05T19:44:55.447Z,17.97
2018-06-05T19:47:27.586Z,17.40
2018-06-05T19:49:59.252Z,18.73
2018-06-05T19:52:31.131Z,18.33
2018-06-05T19:55:02.792Z,19.80
2018-06-05T19:57:34.466Z,19.83
2018-06-05T20:00:06.904Z,18.47
2018-06-05T20:02:38.716Z,20.03
2018-06-05T20:05:10.344Z,18.47
2018-06-05T20:07:42.769Z,18.70
2018-06-05T20:10:14.389Z,19.33
2018-06-05T20:12:46.127Z,18.47
2018-06-05T20:15:17.613Z,18.37
2018-06-05T20:17:49.390Z,18.77
2018-06-05T20:20:20.910Z,18.60
2018-06-05T20:22:53.361Z,18.97
2018-06-05T20:25:24.913Z,18.10
2018-06-05T20:27:56.566Z,18.40
2018-06-05T20:30:28.069Z,20.33
2018-06-05T20:33:00.132Z,18.50
2018-06-05T20:35:31.650Z,19.53
2018-06-05T20:38:04.043Z,20.83
2018-06-05T20:40:35.497Z,21.13
2018-06-05T20:43:07.843Z,19.70
2018-06-05T20:45:39.245Z,21.07
2018-06-05T20:48:11.122Z,22.13
2018-06-05T20:50:42.731Z,20.83
2018-06-05T20:53:14.462Z,24.00
2018-06-05T20:55:46.154Z,22.70
2018-06-05T20:58:18.207Z,23.47
2018-06-05T21:00:49.979Z,23.80
2018-06-05T21:03:21.518Z,23.37
2018-06-05T21:05:53.286Z,23.63
2018-06-05T21:08:26.128Z,23.03
2018-06-05T21:10:57.560Z,23.77
2018-06-05T21:13:29.508Z,24.17
2018-06-05T21:16:01.074Z,22.53
2018-06-05T21:18:33.542Z,22.43
2018-06-05T21:21:05.200Z,24.23
2018-06-05T21:23:37.062Z,22.60
2018-06-05T21:26:08.610Z,23.33
2018-06-05T21:28:40.598Z,21.37
2018-06-05T21:31:11.363Z,23.87
2018-06-05T21:33:43.170Z,22.67
2018-06-05T21:36:14.956Z,23.33
2018-06-05T21:38:47.209Z,23.77
2018-06-05T21:41:18.897Z,22.40
2018-06-05T21:43:50.549Z,20.97
2018-06-05T21:46:22.033Z,20.60
2018-06-05T21:48:53.930Z,21.70
2018-06-05T21:51:25.591Z,21.93
2018-06-05T21:53:57.370Z,21.47
2018-06-05T21:56:29.832Z,21.27
2018-06-05T21:59:01.905Z,22.53
2018-06-05T22:01:33.617Z,22.17
2018-06-05T22:04:05.639Z,21.07
2018-06-05T22:06:37.436Z,20.70
2018-06-05T22:09:10.775Z,23.10
2018-06-05T22:11:42.437Z,22.80
2018-06-05T22:14:14.136Z,21.87
2018-06-05T22:16:45.969Z,21.70
2018-06-05T22:19:17.528Z,21.50
2018-06-05T22:21:48.139Z,20.43
2018-06-05T22:24:19.955Z,22.73
2018-06-05T22:26:51.590Z,21.63
2018-06-05T22:29:23.295Z,23.23
2018-06-05T22:31:54.723Z,22.67
2018-06-05T22:34:26.706Z,22.80
2018-06-05T22:36:58.184Z,22.50
2018-06-05T22:39:30.690Z,21.17
2018-06-05T22:42:02.526Z,20.83
2018-06-05T22:44:34.579Z,23.20
2018-06-05T22:47:06.311Z,23.03
2018-06-05T22:49:38.620Z,23.70
2018-06-05T22:52:10.278Z,23.60
2018-06-05T22:54:42.068Z,23.53
2018-06-05T22:57:13.493Z,25.03
2018-06-05T22:59:45.096Z,21.37
2018-06-05T23:02:16.660Z,22.90
2018-06-05T23:04:48.651Z,25.90
2018-06-05T23:07:20.315Z,24.03
2018-06-05T23:09:54.174Z,24.03
2018-06-05T23:12:25.658Z,22.87
2018-06-05T23:14:57.638Z,23.20
2018-06-05T23:17:29.170Z,22.63
2018-06-05T23:20:00.895Z,23.07
2018-06-05T23:22:32.513Z,21.90
2018-06-05T23:25:04.887Z,23.87
2018-06-05T23:27:36.562Z,23.30
2018-06-05T23:30:08.621Z,22.70
2018-06-05T23:32:40.053Z,21.97
2018-06-05T23:35:11.836Z,20.47
2018-06-05T23:37:43.287Z,24.40
2018-06-05T23:40:14.943Z,22.33
2018-06-05T23:42:46.495Z,22.90
2018-06-05T23:45:18.309Z,20.50
2018-06-05T23:47:49.680Z,22.20
2018-06-05T23:50:21.504Z,19.67
2018-06-05T23:52:53.019Z,22.47
2018-06-05T23:55:24.675Z,21.53
2018-06-05T23:57:56.202Z,21.33
